Time;durP1;ratioP1;P1;durP2;ratioP2;P2;SDS_P1;SDS_P2;PMS_P1;PMS_P2;Temp;Humidity;BMP_temperature;BMP_pressure;BME280_temperature;BME280_humidity;BME280_pressure;Samples;Min_cycle;Max_cycle;Signal;HPM_P1;HPM_P2
2022/05/05 00:00:21;;;;;;;4.22;2.72;;;11.50;99.90;;;;;;5092092;28;20043;-62
2022/05/05 00:02:48;;;;;;;3.78;2.50;;;11.60;99.90;;;;;;5092778;28;20049;-62
2022/05/05 00:05:14;;;;;;;2.78;2.28;;;11.60;99.90;;;;;;5093118;28;20438;-62
2022/05/05 00:07:41;;;;;;;7.65;2.80;;;11.60;99.90;;;;;;5090846;28;20048;-62
2022/05/05 00:15:40;;;;;;;3.03;2.45;;;11.40;99.90;;;;;;5086294;28;20032;-62
2022/05/05 00:18:06;;;;;;;3.33;2.50;;;11.20;99.90;;;;;;5092558;28;20044;-62
2022/05/05 00:20:33;;;;;;;4.03;2.70;;;11.10;99.90;;;;;;5092413;28;20047;-62
2022/05/05 00:23:00;;;;;;;9.82;3.90;;;11.10;99.90;;;;;;5092747;28;20037;-62
2022/05/05 00:25:27;;;;;;;3.40;2.42;;;11.20;99.90;;;;;;5086519;28;20048;-62
2022/05/05 00:27:53;;;;;;;4.72;2.50;;;11.20;99.90;;;;;;5092599;28;20104;-62
2022/05/05 00:30:20;;;;;;;4.63;2.60;;;11.30;99.90;;;;;;5092127;28;20054;-62
2022/05/05 00:32:47;;;;;;;4.27;2.77;;;11.40;99.90;;;;;;5092488;28;20761;-62
2022/05/05 00:35:13;;;;;;;6.82;2.55;;;11.40;99.90;;;;;;5091386;28;20391;-62
2022/05/05 00:37:40;;;;;;;4.25;2.33;;;11.50;99.90;;;;;;5092731;28;20036;-62
2022/05/05 00:40:07;;;;;;;4.38;2.40;;;11.50;99.90;;;;;;5091909;28;20044;-62
2022/05/05 00:42:34;;;;;;;;;;;11.40;99.90;;;;;;5092104;28;20035;-62
2022/05/05 00:45:01;;;;;;;5.65;2.40;;;11.30;99.90;;;;;;5088509;28;19920;-62
2022/05/05 00:47:28;;;;;;;2.63;1.80;;;11.30;99.90;;;;;;5072137;28;20040;-62
2022/05/05 00:49:59;;;;;;;2.58;2.17;;;11.20;99.90;;;;;;5071771;28;20099;-62
2022/05/05 00:52:27;;;;;;;3.17;2.13;;;11.20;99.90;;;;;;5083429;28;20486;-62
2022/05/05 00:54:57;;;;;;;5.22;2.08;;;11.20;99.90;;;;;;5091395;28;20044;-62
2022/05/05 00:57:24;;;;;;;2.63;2.00;;;11.20;99.90;;;;;;5091839;28;20036;-62
2022/05/05 00:59:52;;;;;;;2.80;1.73;;;11.20;99.90;;;;;;5091037;28;20036;-62
2022/05/05 01:02:19;;;;;;;2.83;2.10;;;11.20;99.90;;;;;;5091784;28;20111;-62
2022/05/05 01:04:47;;;;;;;5.28;3.15;;;11.20;99.90;;;;;;5092031;28;20347;-62
2022/05/05 01:07:18;;;;;;;4.32;1.80;;;11.10;99.90;;;;;;5091944;28;20055;-62
2022/05/05 01:09:45;;;;;;;2.53;1.67;;;10.50;99.90;;;;;;5089545;28;20044;-62
2022/05/05 01:12:12;;;;;;;2.72;1.88;;;11.10;99.90;;;;;;5091886;28;20105;-62
2022/05/05 01:14:39;;;;;;;3.78;1.90;;;11.10;99.90;;;;;;5092089;28;20474;-62
2022/05/05 01:17:06;;;;;;;3.20;1.92;;;11.00;99.90;;;;;;5088736;28;20069;-63
2022/05/05 01:19:35;;;;;;;9.52;2.33;;;10.90;99.90;;;;;;5091204;28;20433;-62
2022/05/05 01:22:03;;;;;;;6.15;2.13;;;10.90;99.90;;;;;;5091796;28;20043;-62
2022/05/05 01:30:03;;;;;;;2.80;2.08;;;11.20;99.90;;;;;;5091138;28;20071;-62
2022/05/05 01:32:31;;;;;;;2.63;1.75;;;10.90;99.90;;;;;;5091408;28;20067;-62
2022/05/05 01:34:59;;;;;;;2.83;1.85;;;10.80;99.90;;;;;;5087357;28;20044;-62
2022/05/05 01:37:29;;;;;;;3.25;2.15;;;10.80;99.90;;;;;;5091499;28;20485;-62
2022/05/05 01:39:57;;;;;;;3.78;1.67;;;10.80;99.90;;;;;;5091164;28;20051;-62
2022/05/05 01:42:24;;;;;;;3.72;2.10;;;10.70;99.90;;;;;;5089628;28;20040;-62
2022/05/05 01:44:51;;;;;;;;;;;10.60;99.90;;;;;;5091781;28;20040;-62
2022/05/05 01:47:17;;;;;;;3.40;1.70;;;10.70;99.90;;;;;;5091488;28;19920;-62
2022/05/05 01:49:46;;;;;;;3.40;1.58;;;10.70;99.90;;;;;;5089048;28;20048;-62
2022/05/05 01:52:13;;;;;;;2.40;1.83;;;10.70;99.90;;;;;;5089457;28;20052;-62
2022/05/05 01:54:39;;;;;;;4.05;1.92;;;10.80;99.90;;;;;;5091239;28;20101;-62
2022/05/05 01:57:06;;;;;;;4.97;2.13;;;10.70;99.90;;;;;;5091204;28;20048;-62
2022/05/05 01:59:34;;;;;;;3.60;1.83;;;10.70;99.90;;;;;;5087449;28;20032;-62
2022/05/05 02:02:00;;;;;;;;;;;10.70;99.90;;;;;;5091758;28;20036;-62
2022/05/05 02:04:27;;;;;;;4.00;1.63;;;10.70;99.90;;;;;;5091291;28;20383;-62
2022/05/05 02:06:54;;;;;;;2.47;1.70;;;10.70;99.90;;;;;;5092211;28;20442;-62
2022/05/05 02:09:21;;;;;;;3.10;1.70;;;10.70;99.90;;;;;;5094757;28;20044;-62
2022/05/05 02:11:48;;;;;;;3.67;1.50;;;10.70;99.90;;;;;;5095127;28;20729;-62
2022/05/05 02:14:14;;;;;;;1.77;1.20;;;10.70;99.90;;;;;;5095223;28;20347;-62
2022/05/05 02:16:41;;;;;;;1.73;1.35;;;10.70;99.90;;;;;;5090339;28;20033;-62
2022/05/05 02:19:08;;;;;;;3.63;1.70;;;10.70;99.90;;;;;;5095038;28;20032;-62
2022/05/05 02:21:35;;;;;;;3.38;1.30;;;10.70;99.90;;;;;;5094728;28;20165;-62
2022/05/05 02:24:02;;;;;;;3.25;1.20;;;10.70;99.90;;;;;;5088801;28;20397;-62
2022/05/05 02:26:28;;;;;;;1.98;1.60;;;10.70;99.90;;;;;;5094685;28;20381;-62
2022/05/05 02:28:55;;;;;;;4.43;1.60;;;10.70;99.90;;;;;;5095007;28;20040;-62
2022/05/05 02:31:22;;;;;;;1.90;1.58;;;10.70;99.90;;;;;;5092438;28;20688;-62
2022/05/05 02:33:49;;;;;;;3.63;1.40;;;10.60;99.90;;;;;;5089372;28;20044;-62
2022/05/05 02:39:01;;;;;;;4.93;1.48;;;10.60;99.90;;;;;;5095073;28;20558;-62
2022/05/05 02:41:28;;;;;;;3.88;1.52;;;10.60;99.90;;;;;;5090655;28;20036;-62
2022/05/05 02:43:55;;;;;;;4.97;1.50;;;10.50;99.90;;;;;;5076360;28;20157;-62
2022/05/05 02:46:22;;;;;;;1.63;1.48;;;10.50;99.90;;;;;;5094769;28;20044;-62
2022/05/05 02:48:48;;;;;;;2.20;1.90;;;10.50;99.90;;;;;;5094509;28;20114;-62
2022/05/05 02:51:15;;;;;;;2.38;1.40;;;10.60;99.90;;;;;;5087697;28;20075;-62
2022/05/05 02:56:27;;;;;;;7.13;1.88;;;10.50;99.90;;;;;;5094395;28;20047;-63
2022/05/05 02:58:54;;;;;;;3.72;2.03;;;10.50;99.90;;;;;;5094589;28;20446;-62
2022/05/05 03:01:20;;;;;;;4.32;2.10;;;10.40;99.90;;;;;;5086826;28;20078;-62
2022/05/05 03:03:47;;;;;;;4.53;2.47;;;10.20;99.90;;;;;;5094045;28;20048;-62
2022/05/05 03:06:15;;;;;;;2.92;2.15;;;10.10;99.90;;;;;;5094231;28;20048;-62
2022/05/05 03:08:41;;;;;;;4.38;3.20;;;10.10;99.90;;;;;;5091492;28;20509;-62
2022/05/05 03:11:08;;;;;;;4.60;2.60;;;10.10;99.90;;;;;;5093579;28;20545;-62
2022/05/05 03:13:36;;;;;;;6.47;3.17;;;10.10;99.90;;;;;;5094149;28;20059;-62
2022/05/05 03:16:04;;;;;;;3.30;2.72;;;10.10;99.90;;;;;;5075526;28;20074;-62
2022/05/05 03:18:31;;;;;;;6.85;2.65;;;10.80;99.90;;;;;;5085203;28;20040;-62
2022/05/05 03:20:58;;;;;;;8.48;2.75;;;10.10;99.90;;;;;;5093453;28;20074;-62
2022/05/05 03:23:24;;;;;;;5.43;2.90;;;10.10;99.90;;;;;;5075974;28;20413;-62
2022/05/05 03:25:51;;;;;;;4.95;2.47;;;10.10;99.90;;;;;;5093438;28;20048;-62
2022/05/05 03:28:18;;;;;;;3.28;1.75;;;10.10;99.90;;;;;;5093430;28;20488;-62
2022/05/05 03:30:45;;;;;;;3.75;2.33;;;10.10;99.90;;;;;;5088852;28;20101;-62
2022/05/05 03:33:11;;;;;;;3.40;2.23;;;10.10;99.90;;;;;;5092037;22;20043;-62
2022/05/05 03:36:04;;;;;;;4.80;2.05;;;10.10;99.90;;;;;;5106426;28;20293;-61
2022/05/05 03:38:30;;;;;;;2.55;1.90;;;10.00;99.90;;;;;;5104523;27;20048;-62
2022/05/05 03:40:57;;;;;;;4.57;2.08;;;9.90;99.90;;;;;;5095244;28;20580;-61
2022/05/05 03:43:24;;;;;;;2.25;1.70;;;9.80;99.90;;;;;;5093401;28;20043;-62
2022/05/05 03:45:51;;;;;;;1.73;1.38;;;9.70;99.90;;;;;;5100153;28;20047;-62
2022/05/05 03:48:17;;;;;;;4.53;1.95;;;9.70;99.90;;;;;;5114012;28;20100;-62
2022/05/05 03:50:44;;;;;;;2.22;1.80;;;9.80;99.90;;;;;;5113523;28;20047;-62
2022/05/05 03:53:11;;;;;;;3.80;1.77;;;9.90;99.90;;;;;;5097530;28;20500;-62
2022/05/05 03:55:37;;;;;;;2.55;2.28;;;9.90;99.90;;;;;;5106837;28;20067;-61
2022/05/05 03:58:04;;;;;;;1.93;1.47;;;9.90;99.90;;;;;;5113303;28;20097;-62
2022/05/05 04:00:31;;;;;;;3.50;2.10;;;9.90;99.90;;;;;;5113234;28;20277;-62
2022/05/05 04:05:43;;;;;;;3.60;1.63;;;10.00;99.90;;;;;;5092978;28;20289;-62
2022/05/05 04:08:10;;;;;;;1.67;1.58;;;10.00;99.90;;;;;;5093202;28;20044;-62
2022/05/05 04:10:36;;;;;;;2.07;1.53;;;10.00;99.90;;;;;;5092204;28;20036;-61
2022/05/05 04:13:03;;;;;;;1.83;1.50;;;9.90;99.90;;;;;;5101465;28;20277;-62
2022/05/05 04:15:30;;;;;;;2.70;1.75;;;9.90;99.90;;;;;;5112927;28;20042;-62
2022/05/05 04:17:57;;;;;;;5.32;1.50;;;9.90;99.90;;;;;;5112990;28;20082;-62
2022/05/05 04:20:24;;;;;;;2.95;1.90;;;10.00;99.90;;;;;;5103033;28;20032;-62
2022/05/05 04:22:51;;;;;;;;;;;10.00;99.90;;;;;;5100033;28;20476;-62
2022/05/05 04:25:18;;;;;;;3.95;1.73;;;10.10;99.90;;;;;;5112605;28;19962;-62
2022/05/05 04:27:46;;;;;;;2.25;1.83;;;10.20;99.90;;;;;;5112799;28;20048;-62
2022/05/05 04:30:16;;;;;;;2.95;1.80;;;10.20;99.90;;;;;;5099574;28;20050;-62
2022/05/05 04:32:43;;;;;;;5.35;2.10;;;10.20;99.90;;;;;;5106777;28;20043;-62
2022/05/05 04:35:11;;;;;;;3.40;1.75;;;10.20;99.90;;;;;;5112333;28;20423;-62
2022/05/05 04:37:41;;;;;;;3.22;1.83;;;10.20;99.90;;;;;;5107890;28;20048;-62
2022/05/05 04:40:08;;;;;;;3.75;1.88;;;10.20;99.90;;;;;;5106699;28;20036;-62
2022/05/05 04:42:35;;;;;;;;;;;10.20;99.90;;;;;;5112925;28;20376;-62
2022/05/05 04:45:07;;;;;;;2.30;1.58;;;10.30;99.90;;;;;;5112311;28;19919;-62
2022/05/05 04:47:40;;;;;;;2.47;1.80;;;10.30;99.90;;;;;;5092672;28;20468;-62
2022/05/05 04:50:07;;;;;;;3.70;1.85;;;10.30;99.90;;;;;;5100664;28;20040;-62
2022/05/05 04:52:33;;;;;;;3.30;1.98;;;10.30;99.90;;;;;;5112752;28;20439;-62
2022/05/05 04:55:00;;;;;;;3.33;1.90;;;10.20;99.90;;;;;;5112414;28;20135;-62
2022/05/05 04:57:27;;;;;;;4.18;1.88;;;10.20;99.90;;;;;;5093074;28;20085;-61
2022/05/05 04:59:54;;;;;;;3.00;2.10;;;10.20;99.90;;;;;;5107166;28;20040;-61
2022/05/05 05:02:20;;;;;;;6.32;1.63;;;10.20;99.90;;;;;;5112414;28;20044;-61
2022/05/05 05:04:47;;;;;;;3.80;2.40;;;10.30;99.90;;;;;;5104367;28;20036;-61
2022/05/05 05:07:14;;;;;;;2.33;1.55;;;10.30;99.90;;;;;;5102015;28;20047;-61
2022/05/05 05:09:41;;;;;;;2.40;1.80;;;10.40;99.90;;;;;;5111764;28;20549;-62
2022/05/05 05:12:08;;;;;;;6.18;2.63;;;10.50;99.90;;;;;;5112015;28;20277;-61
2022/05/05 05:14:35;;;;;;;2.30;2.10;;;10.60;99.90;;;;;;5091900;28;20085;-61
2022/05/05 05:17:01;;;;;;;2.78;1.50;;;10.70;99.90;;;;;;5108573;28;20047;-61
2022/05/05 05:19:28;;;;;;;3.83;2.60;;;10.60;99.90;;;;;;5111726;28;20436;-61
2022/05/05 05:21:55;;;;;;;3.58;2.22;;;10.60;99.90;;;;;;5097959;28;20078;-61
2022/05/05 05:24:22;;;;;;;7.82;2.13;;;10.50;99.90;;;;;;5102824;28;20488;-61
2022/05/05 05:26:48;;;;;;;3.58;2.25;;;10.60;99.90;;;;;;5111895;28;20094;-61
2022/05/05 05:29:15;;;;;;;4.18;2.88;;;10.60;99.90;;;;;;5093394;28;20035;-61
2022/05/05 05:31:42;;;;;;;3.67;2.60;;;10.70;99.90;;;;;;5091226;28;20062;-62
2022/05/05 05:34:09;;;;;;;2.75;2.10;;;10.90;99.90;;;;;;5108318;28;20504;-61
2022/05/05 05:36:36;;;;;;;2.45;1.90;;;11.00;99.90;;;;;;5111867;28;20044;-61
2022/05/05 05:39:02;;;;;;;4.25;1.83;;;11.10;99.90;;;;;;5111890;28;20036;-61
2022/05/05 05:41:29;;;;;;;5.00;2.45;;;11.20;99.90;;;;;;5090916;28;20048;-61
2022/05/05 05:43:56;;;;;;;1.90;1.63;;;11.30;99.90;;;;;;5107436;28;20127;-61
2022/05/05 05:46:23;;;;;;;4.00;1.90;;;11.40;99.90;;;;;;5093379;28;20043;-61
2022/05/05 05:48:49;;;;;;;2.63;2.00;;;11.40;99.90;;;;;;5105222;28;20036;-62
2022/05/05 05:51:16;;;;;;;3.17;2.08;;;11.50;99.90;;;;;;5093098;28;20044;-61
2022/05/05 05:53:43;;;;;;;4.32;2.72;;;11.60;99.90;;;;;;5111607;28;20044;-61
2022/05/05 05:56:10;;;;;;;3.47;2.70;;;11.70;99.90;;;;;;5111799;28;20093;-61
2022/05/05 05:58:38;;;;;;;4.05;2.70;;;11.80;99.90;;;;;;5100437;28;20043;-62
2022/05/05 06:01:06;;;;;;;4.40;2.83;;;11.90;99.90;;;;;;5098985;28;20036;-61
2022/05/05 06:06:19;;;;;;;3.03;2.15;;;12.00;99.90;;;;;;5108198;28;20040;-61
2022/05/05 06:08:46;;;;;;;6.88;2.75;;;12.00;99.90;;;;;;5097294;28;20036;-62
2022/05/05 06:11:14;;;;;;;3.00;2.55;;;11.90;99.90;;;;;;5111113;28;20040;-61
2022/05/05 06:13:40;;;;;;;2.63;2.17;;;11.90;99.90;;;;;;5099242;28;20104;-61
2022/05/05 06:16:09;;;;;;;7.88;4.75;;;12.00;99.90;;;;;;5098372;28;20040;-61
2022/05/05 06:18:37;;;;;;;6.88;4.53;;;11.90;99.90;;;;;;5096338;28;20043;-61
2022/05/05 06:21:05;;;;;;;5.80;4.05;;;11.90;99.90;;;;;;5099319;28;20521;-62
2022/05/05 06:23:33;;;;;;;5.68;3.30;;;11.90;99.90;;;;;;5097832;28;20040;-61
2022/05/05 06:26:00;;;;;;;5.18;2.83;;;11.80;99.90;;;;;;5106388;28;20035;-61
2022/05/05 06:28:26;;;;;;;6.05;3.50;;;11.80;99.90;;;;;;5081471;28;20044;-62
2022/05/05 06:30:53;;;;;;;4.40;3.17;;;11.80;99.90;;;;;;5087322;28;20048;-62
2022/05/05 06:33:20;;;;;;;5.57;3.45;;;11.80;99.90;;;;;;5080370;28;20048;-61
2022/05/05 06:35:47;;;;;;;8.18;3.83;;;11.90;99.90;;;;;;5108063;28;20043;-61
2022/05/05 06:38:14;;;;;;;8.23;4.85;;;12.00;99.90;;;;;;5096957;28;20063;-61
2022/05/05 06:40:42;;;;;;;9.70;5.25;;;12.10;99.90;;;;;;5095419;28;20090;-61
2022/05/05 06:43:09;;;;;;;6.32;4.63;;;12.20;99.90;;;;;;5094768;28;20042;-62
2022/05/05 06:45:36;;;;;;;;;;;12.40;99.90;;;;;;5099122;28;20040;-61
2022/05/05 06:48:03;;;;;;;5.88;4.00;;;12.60;99.90;;;;;;5092834;28;19959;-61
2022/05/05 06:50:30;;;;;;;7.68;4.38;;;12.90;99.90;;;;;;5098628;28;20040;-62
2022/05/05 06:53:00;;;;;;;4.75;4.18;;;13.10;99.90;;;;;;5099427;28;20092;-61
2022/05/05 06:55:27;;;;;;;6.97;4.38;;;13.20;99.90;;;;;;5113130;28;20381;-62
2022/05/05 06:57:53;;;;;;;6.85;4.00;;;13.30;99.90;;;;;;5104404;28;20068;-62
2022/05/05 07:00:20;;;;;;;6.40;4.15;;;13.50;99.90;;;;;;5106038;28;20043;-61
2022/05/05 07:02:47;;;;;;;5.93;3.53;;;13.80;99.90;;;;;;5103658;28;20035;-62
2022/05/05 07:05:23;;;;;;;6.95;3.38;;;14.10;99.90;;;;;;5105044;28;20044;-62
2022/05/05 07:07:51;;;;;;;5.18;3.45;;;14.40;99.90;;;;;;5103423;28;20036;-61
2022/05/05 07:13:04;;;;;;;5.28;3.40;;;15.10;99.90;;;;;;5096060;28;20043;-62
2022/05/05 07:15:31;;;;;;;8.75;3.25;;;15.20;99.90;;;;;;5103145;28;20414;-62
2022/05/05 07:17:59;;;;;;;4.20;2.85;;;15.40;99.90;;;;;;5068670;28;20087;-62
2022/05/05 07:20:26;;;;;;;5.72;3.00;;;15.70;99.90;;;;;;5097660;28;20442;-61
2022/05/05 07:22:53;;;;;;;6.18;3.53;;;15.90;99.90;;;;;;5098577;28;20039;-62
2022/05/05 07:25:19;;;;;;;7.18;3.92;;;16.20;99.90;;;;;;5103065;28;20044;-62
2022/05/05 07:27:46;;;;;;;5.05;3.20;;;16.40;99.90;;;;;;5083747;28;20044;-62
2022/05/05 07:30:14;;;;;;;12.20;3.80;;;16.50;99.90;;;;;;5094527;28;20063;-62
2022/05/05 07:32:41;;;;;;;5.72;3.35;;;16.30;99.90;;;;;;5113873;28;20059;-62
2022/05/05 07:35:09;;;;;;;7.53;3.40;;;16.20;99.90;;;;;;5113753;28;20603;-62
2022/05/05 07:37:37;;;;;;;6.47;3.13;;;16.10;99.90;;;;;;5100986;28;20488;-62
2022/05/05 07:40:05;;;;;;;8.52;3.58;;;16.10;99.90;;;;;;5101391;28;20040;-62
2022/05/05 07:42:32;;;;;;;3.85;2.97;;;16.40;99.90;;;;;;5113842;28;20120;-62
2022/05/05 07:44:59;;;;;;;5.07;3.35;;;16.70;99.90;;;;;;5092298;28;20530;-62
2022/05/05 07:47:25;;;;;;;9.60;3.03;;;17.10;99.90;;;;;;5096459;28;20043;-62
2022/05/05 07:49:52;;;;;;;9.55;3.85;;;17.30;99.90;;;;;;5113103;28;20384;-62
2022/05/05 07:52:19;;;;;;;4.72;2.83;;;17.30;99.90;;;;;;5113533;28;20044;-61
2022/05/05 07:54:46;;;;;;;4.95;3.20;;;17.30;99.90;;;;;;5092813;28;20043;-61
2022/05/05 07:57:14;;;;;;;7.28;2.90;;;17.30;99.90;;;;;;5111364;28;20043;-62
2022/05/05 07:59:44;;;;;;;4.47;2.90;;;17.40;99.90;;;;;;5112868;28;20043;-62
2022/05/05 08:02:14;;;;;;;5.30;2.95;;;17.40;99.90;;;;;;5110003;28;20036;-62
2022/05/05 08:04:41;;;;;;;4.75;2.95;;;17.30;99.90;;;;;;5092531;28;20105;-62
2022/05/05 08:07:08;;;;;;;4.88;2.95;;;17.10;99.90;;;;;;5093022;28;20670;-62
2022/05/05 08:09:36;;;;;;;;;;;16.80;99.90;;;;;;5081738;28;20561;-62
2022/05/05 08:12:23;;;;;;;4.15;3.25;;;16.70;99.90;;;;;;5092494;28;20009;-62
2022/05/05 08:15:16;;;;;;;7.85;2.95;;;16.60;99.90;;;;;;5110303;28;20508;-61
2022/05/05 08:17:44;;;;;;;4.07;2.50;;;16.70;99.90;;;;;;5112620;28;20057;-62
2022/05/05 08:20:12;;;;;;;5.88;2.00;;;16.80;99.90;;;;;;5094106;28;20496;-62
2022/05/05 08:22:38;;;;;;;;;;;16.70;99.90;;;;;;5113362;28;20048;-62
2022/05/05 08:30:38;;;;;;;6.30;2.63;;;16.90;99.90;;;;;;5092439;28;20075;-62
2022/05/05 08:33:05;;;;;;;4.20;2.55;;;17.10;99.90;;;;;;5092135;28;20036;-62
2022/05/05 08:35:32;;;;;;;8.85;2.72;;;17.40;99.90;;;;;;5089400;28;20050;-62
2022/05/05 08:37:59;;;;;;;;;;;17.60;99.90;;;;;;5092705;28;20518;-62
2022/05/05 08:40:27;;;;;;;2.72;2.28;;;17.60;99.90;;;;;;5092212;28;20261;-62
2022/05/05 08:42:54;;;;;;;5.80;2.40;;;17.80;99.90;;;;;;5092460;28;20467;-62
2022/05/05 08:45:21;;;;;;;5.43;2.47;;;18.00;99.90;;;;;;5092058;28;20089;-62
2022/05/05 08:47:48;;;;;;;;;;;18.00;99.90;;;;;;5107566;28;20059;-62
2022/05/05 08:50:15;;;;;;;5.15;2.50;;;18.20;99.90;;;;;;5112578;28;20281;-62
2022/05/05 08:52:48;;;;;;;3.92;2.40;;;18.30;99.90;;;;;;5099335;28;20113;-62
2022/05/05 08:55:17;;;;;;;8.05;2.40;;;18.30;99.90;;;;;;5102641;28;20043;-62
2022/05/05 08:57:44;;;;;;;4.28;2.35;;;18.30;99.90;;;;;;5112486;28;20058;-62
2022/05/05 09:00:13;;;;;;;;;;;18.30;99.90;;;;;;5111632;28;20039;-62
2022/05/05 09:02:41;;;;;;;3.38;1.98;;;18.30;99.90;;;;;;5091933;28;19920;-62
2022/05/05 09:05:09;;;;;;;8.32;2.50;;;18.20;99.90;;;;;;5109681;28;20043;-62
2022/05/05 09:07:52;;;;;;;7.32;2.70;;;18.40;99.90;;;;;;5112315;28;20044;-62
2022/05/05 09:10:20;;;;;;;3.33;2.20;;;18.60;99.90;;;;;;5092610;28;20044;-61
2022/05/05 09:13:00;;;;;;;8.00;3.10;;;18.60;99.90;;;;;;5106147;28;20047;-62
2022/05/05 09:15:34;;;;;;;3.80;2.28;;;18.70;99.90;;;;;;5105687;28;20044;-62
2022/05/05 09:18:12;;;;;;;2.95;2.00;;;18.70;99.90;;;;;;5108801;28;20388;-62
2022/05/05 09:20:39;;;;;;;3.88;1.98;;;18.80;99.90;;;;;;5103648;28;20409;-62
2022/05/05 09:26:25;;;;;;;3.08;2.30;;;18.90;99.90;;;;;;5097910;28;20067;-62
2022/05/05 09:28:52;;;;;;;2.30;1.80;;;18.80;99.90;;;;;;5098602;28;20039;-62
2022/05/05 09:31:21;;;;;;;5.63;3.08;;;18.80;99.90;;;;;;5111412;28;20036;-62
2022/05/05 09:33:50;;;;;;;2.53;2.05;;;18.90;99.90;;;;;;5122938;22;20775;-62
2022/05/05 09:36:25;;;;;;;4.38;2.05;;;18.80;99.90;;;;;;5068657;28;20048;-63
2022/05/05 09:38:58;;;;;;;3.08;2.15;;;18.90;99.90;;;;;;5068117;28;20032;-64
2022/05/05 09:41:42;;;;;;;4.28;2.85;;;18.90;99.90;;;;;;5070566;28;20040;-64
2022/05/05 09:44:18;;;;;;;5.10;2.30;;;19.00;99.90;;;;;;5069350;28;20037;-64
2022/05/05 09:46:44;;;;;;;8.73;2.60;;;19.00;99.90;;;;;;5070819;28;20036;-63
2022/05/05 09:49:13;;;;;;;;;;;19.00;99.90;;;;;;5068423;28;20128;-64
2022/05/05 09:57:41;;;;;;;4.43;2.95;;;19.60;99.90;;;;;;5070395;28;20123;-64
2022/05/05 10:00:24;;;;;;;3.08;2.78;;;19.90;99.90;;;;;;5053304;28;20036;-63
2022/05/05 10:05:59;;;;;;;8.30;2.75;;;19.60;99.90;;;;;;5067745;28;20386;-64
2022/05/05 10:08:38;;;;;;;3.28;2.72;;;19.60;99.90;;;;;;5070594;28;20043;-64
2022/05/05 10:11:07;;;;;;;7.93;3.30;;;19.50;99.90;;;;;;5068428;28;20492;-64
2022/05/05 10:13:37;;;;;;;4.25;2.63;;;19.40;99.90;;;;;;5070528;28;20041;-64
2022/05/05 10:16:05;;;;;;;4.40;2.67;;;19.30;99.90;;;;;;5070526;28;20044;-63
2022/05/05 10:18:37;;;;;;;6.78;2.90;;;19.30;99.90;;;;;;5070232;28;20041;-64
2022/05/05 10:21:46;;;;;;;5.07;3.08;;;19.40;99.90;;;;;;5067272;28;20052;-64
2022/05/05 10:24:17;;;;;;;5.18;2.78;;;19.50;99.90;;;;;;5068912;28;20075;-64
2022/05/05 10:26:52;;;;;;;3.10;2.80;;;19.50;99.90;;;;;;5069385;28;20056;-64
2022/05/05 10:29:40;;;;;;;4.00;2.50;;;19.60;99.90;;;;;;5073207;28;20048;-64
2022/05/05 10:32:13;;;;;;;;;;;19.70;99.90;;;;;;5072533;28;20055;-64
2022/05/05 10:34:41;;;;;;;2.47;2.28;;;19.90;99.90;;;;;;5073148;28;19920;-64
2022/05/05 10:37:20;;;;;;;6.85;3.13;;;20.20;99.90;;;;;;5072126;28;20405;-64
2022/05/05 10:39:58;;;;;;;3.05;2.63;;;20.10;99.90;;;;;;5071308;28;20098;-64
2022/05/05 10:42:39;;;;;;;3.33;2.53;;;20.10;99.90;;;;;;5074027;28;20051;-63
2022/05/05 10:45:10;;;;;;;5.85;2.60;;;20.00;99.90;;;;;;5073496;28;20049;-63
2022/05/05 10:47:55;;;;;;;5.43;2.47;;;19.80;99.90;;;;;;5074120;28;20044;-63
2022/05/05 10:50:39;;;;;;;8.07;2.97;;;20.00;99.90;;;;;;5073287;28;20036;-63
2022/05/05 10:53:07;;;;;;;3.63;2.50;;;20.10;99.90;;;;;;5064918;28;20111;-63
2022/05/05 10:55:48;;;;;;;3.90;2.53;;;20.10;99.90;;;;;;5074114;28;20094;-63
2022/05/05 10:58:57;;;;;;;5.22;2.92;;;20.10;99.90;;;;;;5074270;28;20049;-63
2022/05/05 11:01:29;;;;;;;3.00;2.50;;;20.20;99.90;;;;;;5073113;28;20479;-62
2022/05/05 11:04:17;;;;;;;5.38;2.35;;;20.40;99.90;;;;;;5056513;28;20044;-64
2022/05/05 11:06:48;;;;;;;4.30;2.00;;;20.30;99.90;;;;;;5074087;28;20048;-62
2022/05/05 11:09:30;;;;;;;6.80;2.20;;;20.20;99.90;;;;;;5072769;28;20584;-63
2022/05/05 11:12:22;;;;;;;2.63;2.33;;;20.20;99.90;;;;;;5071228;28;20033;-63
2022/05/05 11:23:47;;;;;;;2.85;2.20;;;20.50;99.90;;;;;;5071909;28;20036;-63
2022/05/05 11:26:19;;;;;;;2.33;2.10;;;20.60;99.90;;;;;;5065771;28;20397;-63
2022/05/05 11:28:47;;;;;;;2.63;2.40;;;20.50;99.90;;;;;;5071110;28;20040;-63
2022/05/05 11:31:31;;;;;;;5.07;2.45;;;20.60;99.90;;;;;;5072596;28;20044;-63
2022/05/05 11:34:00;;;;;;;4.07;2.10;;;20.80;99.90;;;;;;5068820;28;20453;-63
2022/05/05 11:36:29;;;;;;;3.10;2.50;;;20.80;99.90;;;;;;5070426;28;20048;-63
2022/05/05 11:38:56;;;;;;;3.60;1.95;;;20.50;99.90;;;;;;5069543;28;20484;-63
2022/05/05 11:41:25;;;;;;;7.50;2.50;;;20.50;99.90;;;;;;5072148;28;20475;-63
2022/05/05 11:46:52;;;;;;;3.45;1.95;;;20.60;99.90;;;;;;5063371;28;20060;-63
2022/05/05 11:49:19;;;;;;;2.30;2.10;;;20.70;99.90;;;;;;5072971;28;20050;-63
2022/05/05 11:51:46;;;;;;;2.60;2.40;;;20.60;99.90;;;;;;5072400;28;20110;-63
2022/05/05 11:54:15;;;;;;;2.90;2.63;;;20.60;99.90;;;;;;5072930;28;20040;-63
2022/05/05 11:56:47;;;;;;;4.63;2.53;;;20.60;99.90;;;;;;5073220;28;20044;-63
2022/05/05 12:02:10;;;;;;;2.35;2.15;;;21.00;99.90;;;;;;5070370;28;20043;-63
2022/05/05 12:04:45;;;;;;;2.75;2.33;;;20.80;99.90;;;;;;5069225;28;20036;-63
2022/05/05 12:07:20;;;;;;;2.55;2.10;;;21.00;99.90;;;;;;5072083;28;20054;-63
2022/05/05 12:09:55;;;;;;;3.13;2.03;;;21.20;99.90;;;;;;5069416;28;20225;-63
2022/05/05 12:12:29;;;;;;;3.67;2.25;;;21.50;99.90;;;;;;5071971;28;20055;-62
2022/05/05 12:14:59;;;;;;;3.65;2.05;;;21.50;99.50;;;;;;5053166;28;20041;-62
2022/05/05 12:17:34;;;;;;;2.50;2.17;;;21.40;99.90;;;;;;5057320;28;20587;-63
2022/05/05 12:20:05;;;;;;;2.60;2.20;;;21.20;99.30;;;;;;5071692;28;20041;-63
2022/05/05 12:22:39;;;;;;;3.22;2.08;;;21.10;99.10;;;;;;5071878;28;20556;-62
2022/05/05 12:25:15;;;;;;;3.17;2.33;;;21.00;99.90;;;;;;5072667;28;20040;-63
2022/05/05 12:28:01;;;;;;;3.65;2.13;;;21.20;99.90;;;;;;5071482;28;20094;-63
2022/05/05 12:30:43;;;;;;;2.38;1.80;;;21.30;99.90;;;;;;5070680;28;20086;-62
2022/05/05 12:33:12;;;;;;;3.97;1.95;;;21.40;99.90;;;;;;5068861;28;20064;-63
2022/05/05 12:35:41;;;;;;;2.92;2.25;;;21.30;99.90;;;;;;5072145;28;20379;-63
2022/05/05 12:38:11;;;;;;;3.42;2.10;;;21.20;99.90;;;;;;5071434;28;20044;-63
2022/05/05 12:40:40;;;;;;;2.75;2.28;;;21.20;99.90;;;;;;5070782;28;20505;-63
2022/05/05 12:43:11;;;;;;;4.78;2.35;;;21.20;99.00;;;;;;5070326;28;20046;-62
2022/05/05 12:45:38;;;;;;;8.10;2.33;;;21.40;98.90;;;;;;5069322;28;20036;-62
2022/05/05 12:48:07;;;;;;;5.65;2.17;;;21.30;98.60;;;;;;5071271;28;20440;-62
2022/05/05 12:50:41;;;;;;;3.42;2.10;;;21.20;99.90;;;;;;5067155;28;20033;-63
2022/05/05 13:01:31;;;;;;;3.55;2.35;;;21.10;99.90;;;;;;5055091;28;20482;-63
2022/05/05 13:04:01;;;;;;;4.18;2.78;;;20.90;99.90;;;;;;5070359;28;20051;-63
2022/05/05 13:06:28;;;;;;;3.42;2.28;;;20.70;99.90;;;;;;5071492;28;20040;-62
2022/05/05 13:08:55;;;;;;;4.28;2.45;;;20.70;99.90;;;;;;5070896;28;20040;-63
2022/05/05 13:11:23;;;;;;;3.03;2.30;;;20.60;99.90;;;;;;5070429;28;20048;-62
2022/05/05 13:13:50;;;;;;;;;;;20.60;99.90;;;;;;5071908;28;20045;-63
2022/05/05 13:16:27;;;;;;;3.95;2.00;;;20.60;99.90;;;;;;5071836;28;20353;-62
2022/05/05 13:18:55;;;;;;;3.45;2.30;;;20.70;99.90;;;;;;5070533;28;20044;-63
2022/05/05 13:21:22;;;;;;;2.22;1.83;;;20.70;99.90;;;;;;5070883;28;20089;-63
2022/05/05 13:23:49;;;;;;;2.50;2.15;;;20.80;99.90;;;;;;5071798;28;20044;-63
2022/05/05 13:26:16;;;;;;;5.50;2.53;;;20.70;99.90;;;;;;5070546;28;20051;-63
2022/05/05 13:28:43;;;;;;;3.30;2.55;;;20.60;99.90;;;;;;5071065;28;20047;-63
2022/05/05 13:31:09;;;;;;;8.68;2.55;;;20.60;99.90;;;;;;5070620;28;20040;-62
2022/05/05 13:33:36;;;;;;;3.17;2.40;;;20.50;99.90;;;;;;5071223;28;20090;-63
2022/05/05 13:36:03;;;;;;;3.25;2.50;;;20.40;99.90;;;;;;5070487;28;20443;-63
2022/05/05 13:38:30;;;;;;;;;;;20.30;99.90;;;;;;5071672;28;20055;-63
2022/05/05 13:41:17;;;;;;;7.30;2.70;;;20.20;99.90;;;;;;5070475;28;20366;-63
2022/05/05 13:43:43;;;;;;;5.70;2.20;;;20.20;99.90;;;;;;5070589;28;20409;-63
2022/05/05 13:46:10;;;;;;;3.17;2.25;;;20.10;99.90;;;;;;5071543;28;20094;-62
2022/05/05 13:48:37;;;;;;;4.53;2.22;;;20.10;99.90;;;;;;5053342;28;20071;-63
2022/05/05 13:51:05;;;;;;;2.22;2.00;;;20.00;99.90;;;;;;5070926;28;20127;-63
2022/05/05 13:53:33;;;;;;;3.17;2.22;;;19.90;99.90;;;;;;5070692;28;20475;-63
2022/05/05 13:56:00;;;;;;;3.83;2.13;;;19.80;99.90;;;;;;5070348;28;20240;-63
2022/05/05 13:58:29;;;;;;;2.92;1.90;;;19.70;99.90;;;;;;5063146;28;20040;-63
2022/05/05 14:00:56;;;;;;;2.70;1.90;;;19.60;99.40;;;;;;5070232;28;20036;-63
2022/05/05 14:03:23;;;;;;;3.10;2.30;;;19.50;99.50;;;;;;5074969;28;20039;-63
2022/05/05 14:05:50;;;;;;;4.45;2.03;;;19.40;99.60;;;;;;5075144;28;20617;-62